createdAt,value
2023-05-18T00:00:38.897Z,84.68
2023-05-18T00:01:40.027Z,84.16
2023-05-18T00:02:40.073Z,84.72
2023-05-18T00:03:40.113Z,85.27
2023-05-18T00:04:40.078Z,85.89
2023-05-18T00:05:39.980Z,86.31
2023-05-18T00:06:39.970Z,87.18
2023-05-18T00:07:39.960Z,87.59
2023-05-18T00:08:39.974Z,88.32
2023-05-18T00:09:39.947Z,87.80
2023-05-18T00:10:39.947Z,87.90
2023-05-18T00:11:39.919Z,86.97
2023-05-18T00:12:39.936Z,86.45
2023-05-18T00:13:39.916Z,85.79
2023-05-18T00:14:39.925Z,84.59
2023-05-18T00:15:39.904Z,84.90
2023-05-18T00:16:39.968Z,85.42
2023-05-18T00:17:39.899Z,85.52
2023-05-18T00:18:39.949Z,85.31
2023-05-18T00:19:39.842Z,85.42
2023-05-18T00:20:39.829Z,84.48
2023-05-18T00:21:39.867Z,85.14
2023-05-18T00:22:39.860Z,85.21
2023-05-18T00:23:39.807Z,85.00
2023-05-18T00:24:39.817Z,84.80
2023-05-18T00:25:39.801Z,85.21
2023-05-18T00:26:39.803Z,85.52
2023-05-18T00:27:39.768Z,87.53
2023-05-18T00:28:39.769Z,88.57
2023-05-18T00:29:39.754Z,88.42
2023-05-18T00:30:39.747Z,88.26
2023-05-18T00:31:39.753Z,86.97
2023-05-18T00:32:39.771Z,85.83
2023-05-18T00:33:39.719Z,85.25
2023-05-18T00:34:39.708Z,85.14
2023-05-18T00:35:39.703Z,85.14
2023-05-18T00:36:39.672Z,84.94
2023-05-18T00:37:40.672Z,85.14
2023-05-18T00:38:39.654Z,85.04
2023-05-18T00:39:39.722Z,85.87
2023-05-18T00:40:39.640Z,87.63
2023-05-18T00:41:39.651Z,90.17
2023-05-18T00:42:39.617Z,89.79
2023-05-18T00:43:39.630Z,89.86
2023-05-18T00:44:39.629Z,89.96
2023-05-18T00:45:39.615Z,90.27
2023-05-18T00:46:39.589Z,88.51
2023-05-18T00:47:39.603Z,87.32
2023-05-18T00:48:39.556Z,86.74
2023-05-18T00:49:39.541Z,86.29
2023-05-18T00:50:39.525Z,85.60
2023-05-18T00:51:39.531Z,87.68
2023-05-18T00:52:39.521Z,87.57
2023-05-18T00:53:39.748Z,87.26
2023-05-18T00:54:39.494Z,87.82
2023-05-18T00:55:39.496Z,87.40
2023-05-18T00:56:39.565Z,87.16
2023-05-18T00:57:39.502Z,87.40
2023-05-18T00:58:39.480Z,85.81
2023-05-18T00:59:39.477Z,85.22
2023-05-18T01:00:39.457Z,84.91
2023-05-18T01:01:39.503Z,84.91
2023-05-18T01:02:40.513Z,84.91
2023-05-18T01:03:39.534Z,84.91
2023-05-18T01:04:39.394Z,86.05
2023-05-18T01:05:39.417Z,86.05
2023-05-18T01:06:39.383Z,84.70
2023-05-18T01:07:39.375Z,85.12
2023-05-18T01:08:39.399Z,85.22
2023-05-18T01:09:39.336Z,85.33
2023-05-18T01:10:39.352Z,85.12
2023-05-18T01:11:39.391Z,84.39
2023-05-18T01:12:39.345Z,84.19
2023-05-18T01:13:39.318Z,84.39
2023-05-18T01:14:39.309Z,85.02
2023-05-18T01:15:39.331Z,85.22
2023-05-18T01:16:39.278Z,86.16
2023-05-18T01:17:39.304Z,87.76
2023-05-18T01:18:39.287Z,88.07
2023-05-18T01:19:39.265Z,87.76
2023-05-18T01:20:39.278Z,87.30
2023-05-18T01:21:39.256Z,87.13
2023-05-18T01:22:39.228Z,86.61
2023-05-18T01:23:39.217Z,86.57
2023-05-18T01:24:39.201Z,87.45
2023-05-18T01:25:39.189Z,87.13
2023-05-18T01:26:39.178Z,87.34
2023-05-18T01:27:39.148Z,88.59
2023-05-18T01:28:39.145Z,88.48
2023-05-18T01:29:39.178Z,87.76
2023-05-18T01:30:39.165Z,86.93
2023-05-18T01:31:39.130Z,86.41
2023-05-18T01:32:39.151Z,85.88
2023-05-18T01:33:39.111Z,85.68
2023-05-18T01:34:39.101Z,85.47
2023-05-18T01:35:39.088Z,85.51
2023-05-18T01:36:39.092Z,86.55
2023-05-18T01:37:39.074Z,86.82
2023-05-18T01:38:39.393Z,86.61
2023-05-18T01:39:39.047Z,86.96
2023-05-18T01:40:39.040Z,86.82
2023-05-18T01:41:39.033Z,86.61
2023-05-18T01:42:39.018Z,86.44
2023-05-18T01:43:39.045Z,87.03
2023-05-18T01:44:39.016Z,86.61
2023-05-18T01:45:38.990Z,86.30
2023-05-18T01:46:39.017Z,85.88
2023-05-18T01:47:39.029Z,85.99
2023-05-18T01:48:38.975Z,85.68
2023-05-18T01:49:38.966Z,86.09
2023-05-18T01:50:38.973Z,87.38
2023-05-18T01:51:38.981Z,89.04
2023-05-18T01:52:38.954Z,90.08
2023-05-18T01:53:38.931Z,90.29
2023-05-18T01:54:38.930Z,89.36
2023-05-18T01:55:38.917Z,89.36
2023-05-18T01:56:38.909Z,88.84
2023-05-18T01:57:38.921Z,88.73
2023-05-18T01:58:38.886Z,88.10
2023-05-18T01:59:38.894Z,87.79
2023-05-18T02:00:38.855Z,86.76
2023-05-18T02:01:38.880Z,86.65
2023-05-18T02:02:38.993Z,85.51
2023-05-18T02:03:38.974Z,85.51
2023-05-18T02:04:38.830Z,85.65
2023-05-18T02:05:38.819Z,85.75
2023-05-18T02:06:38.827Z,85.41
2023-05-18T02:07:38.817Z,85.30
2023-05-18T02:08:38.791Z,85.34
2023-05-18T02:09:38.771Z,85.03
2023-05-18T02:10:38.760Z,85.55
2023-05-18T02:11:38.756Z,85.72
2023-05-18T02:12:38.733Z,86.17
2023-05-18T02:13:38.717Z,86.13
2023-05-18T02:14:38.755Z,85.75
2023-05-18T02:15:38.731Z,86.17
2023-05-18T02:16:38.770Z,86.27
2023-05-18T02:17:38.720Z,85.86
2023-05-18T02:18:39.719Z,86.17
2023-05-18T02:19:38.702Z,85.65
2023-05-18T02:20:38.638Z,85.65
2023-05-18T02:21:38.645Z,85.24
2023-05-18T02:22:38.635Z,84.92
2023-05-18T02:23:38.710Z,85.96
2023-05-18T02:24:38.607Z,85.96
2023-05-18T02:25:38.610Z,86.21
2023-05-18T02:26:38.586Z,86.00
2023-05-18T02:27:38.585Z,86.11
2023-05-18T02:28:38.580Z,86.00
2023-05-18T02:29:38.557Z,85.65
2023-05-18T02:30:38.570Z,86.00
2023-05-18T02:31:38.588Z,86.21
2023-05-18T02:32:38.678Z,85.69
2023-05-18T02:33:38.538Z,85.80
2023-05-18T02:34:38.501Z,85.90
2023-05-18T02:35:38.496Z,85.59
2023-05-18T02:36:38.502Z,85.55
2023-05-18T02:37:38.468Z,87.46
2023-05-18T02:38:38.504Z,87.25
2023-05-18T02:39:38.501Z,87.29
2023-05-18T02:40:38.480Z,87.50
2023-05-18T02:41:38.454Z,88.54
2023-05-18T02:42:38.423Z,90.62
2023-05-18T02:43:38.406Z,89.94
2023-05-18T02:44:38.430Z,90.10
2023-05-18T02:45:38.412Z,90.31
2023-05-18T02:46:38.411Z,90.41
2023-05-18T02:47:38.405Z,88.23
2023-05-18T02:48:38.368Z,87.88
2023-05-18T02:49:38.403Z,87.29
2023-05-18T02:50:38.371Z,87.19
2023-05-18T02:51:38.351Z,87.71
2023-05-18T02:52:38.362Z,86.98
2023-05-18T02:53:38.371Z,86.88
2023-05-18T02:54:38.366Z,86.88
2023-05-18T02:55:38.373Z,86.88
2023-05-18T02:56:38.312Z,86.88
2023-05-18T02:57:38.289Z,86.67
2023-05-18T02:58:38.294Z,86.35
2023-05-18T02:59:38.302Z,86.46
2023-05-18T03:00:38.290Z,86.57
2023-05-18T03:01:38.278Z,86.46
2023-05-18T03:02:38.396Z,86.15
2023-05-18T03:03:38.292Z,85.83
2023-05-18T03:04:38.243Z,85.83
2023-05-18T03:05:38.208Z,86.35
2023-05-18T03:06:38.223Z,85.83
2023-05-18T03:07:38.210Z,86.25
2023-05-18T03:08:39.206Z,86.46
2023-05-18T03:09:38.186Z,86.67
2023-05-18T03:10:38.184Z,86.25
2023-05-18T03:11:38.164Z,86.77
2023-05-18T03:12:38.184Z,86.77
2023-05-18T03:13:38.134Z,87.29
2023-05-18T03:14:39.158Z,87.29
2023-05-18T03:15:38.163Z,87.33
2023-05-18T03:16:38.257Z,87.85
2023-05-18T03:17:38.210Z,87.43
2023-05-18T03:18:38.148Z,87.43
2023-05-18T03:19:38.112Z,87.48
2023-05-18T03:20:38.108Z,87.37
2023-05-18T03:21:38.080Z,88.52
2023-05-18T03:22:38.076Z,88.76
2023-05-18T03:23:38.073Z,90.01
2023-05-18T03:24:38.057Z,90.44
2023-05-18T03:25:38.048Z,89.50
2023-05-18T03:26:38.037Z,88.87
2023-05-18T03:27:38.049Z,89.29
2023-05-18T03:28:37.995Z,89.70
2023-05-18T03:29:38.012Z,90.44
2023-05-18T03:30:37.989Z,89.91
2023-05-18T03:31:38.057Z,89.60
2023-05-18T03:32:38.074Z,90.29
2023-05-18T03:33:37.941Z,88.52
2023-05-18T03:34:37.942Z,88.35
2023-05-18T03:35:38.003Z,88.04
2023-05-18T03:36:37.925Z,87.58
2023-05-18T03:37:37.966Z,88.42
2023-05-18T03:38:37.898Z,87.89
2023-05-18T03:39:37.912Z,88.62
2023-05-18T03:40:37.895Z,89.98
2023-05-18T03:41:37.897Z,90.08
2023-05-18T03:42:37.884Z,89.76
2023-05-18T03:43:37.881Z,90.39
2023-05-18T03:44:37.846Z,89.87
2023-05-18T03:45:37.883Z,90.08
2023-05-18T03:46:37.847Z,89.66
2023-05-18T03:47:37.848Z,89.25
2023-05-18T03:48:37.829Z,90.19
2023-05-18T03:49:37.813Z,90.29
2023-05-18T03:50:37.848Z,89.98
2023-05-18T03:51:37.779Z,90.77
2023-05-18T03:52:37.779Z,90.70
2023-05-18T03:53:37.775Z,91.02
2023-05-18T03:54:37.768Z,91.12
2023-05-18T03:55:37.765Z,91.12
2023-05-18T03:56:37.720Z,90.60
2023-05-18T03:57:37.740Z,89.73
2023-05-18T03:58:38.698Z,89.94
2023-05-18T03:59:37.727Z,90.50
2023-05-18T04:00:37.703Z,89.94
2023-05-18T04:01:37.727Z,89.20
2023-05-18T04:02:37.796Z,88.89
2023-05-18T04:03:37.757Z,89.10
2023-05-18T04:04:37.643Z,88.37
2023-05-18T04:05:37.622Z,88.58
2023-05-18T04:06:37.668Z,88.85
2023-05-18T04:07:37.628Z,89.20
2023-05-18T04:08:37.682Z,90.04
2023-05-18T04:09:37.623Z,90.25
2023-05-18T04:10:37.576Z,90.97
2023-05-18T04:11:37.574Z,90.66
2023-05-18T04:12:37.575Z,90.87
2023-05-18T04:13:37.573Z,91.50
2023-05-18T04:14:37.565Z,90.56
2023-05-18T04:15:37.557Z,90.10
2023-05-18T04:16:37.558Z,89.58
2023-05-18T04:17:37.549Z,89.58
2023-05-18T04:18:37.558Z,89.58
2023-05-18T04:19:37.542Z,90.52
2023-05-18T04:20:37.486Z,90.52
2023-05-18T04:21:37.512Z,90.31
2023-05-18T04:22:37.467Z,90.25
2023-05-18T04:23:37.477Z,90.66
2023-05-18T04:24:37.446Z,90.45
2023-05-18T04:25:37.464Z,90.56
2023-05-18T04:26:37.419Z,90.35
2023-05-18T04:27:37.433Z,90.97
2023-05-18T04:28:37.572Z,90.45
2023-05-18T04:29:37.416Z,90.66
2023-05-18T04:30:37.410Z,90.45
2023-05-18T04:31:37.467Z,90.35
2023-05-18T04:32:37.399Z,90.62
2023-05-18T04:33:37.380Z,89.89
2023-05-18T04:34:37.363Z,90.31
2023-05-18T04:35:37.362Z,90.20
2023-05-18T04:36:37.353Z,89.58
2023-05-18T04:37:37.343Z,89.62
2023-05-18T04:38:37.334Z,90.41
2023-05-18T04:39:37.319Z,90.20
2023-05-18T04:40:37.321Z,89.69
2023-05-18T04:41:37.312Z,89.37
2023-05-18T04:42:37.333Z,89.58
2023-05-18T04:43:37.267Z,89.48
2023-05-18T04:44:37.276Z,89.48
2023-05-18T04:45:37.327Z,89.43
2023-05-18T04:46:37.259Z,89.02
2023-05-18T04:47:37.277Z,88.81
2023-05-18T04:48:37.206Z,88.71
2023-05-18T04:49:37.212Z,88.04
2023-05-18T04:50:37.245Z,88.25
2023-05-18T04:51:37.190Z,87.32
2023-05-18T04:52:37.191Z,87.17
2023-05-18T04:53:37.169Z,88.62
2023-05-18T04:54:37.158Z,88.31
2023-05-18T04:55:37.153Z,88.10
2023-05-18T04:56:37.174Z,88.00
2023-05-18T04:57:37.140Z,87.96
2023-05-18T04:58:37.134Z,88.31
2023-05-18T04:59:37.106Z,88.38
2023-05-18T05:00:37.113Z,88.79
2023-05-18T05:01:37.111Z,87.86
2023-05-18T05:02:37.126Z,88.28
2023-05-18T05:03:37.148Z,87.86
2023-05-18T05:04:37.076Z,88.42
2023-05-18T05:05:37.030Z,88.10
2023-05-18T05:06:37.051Z,88.28
2023-05-18T05:07:37.015Z,88.38
2023-05-18T05:08:37.007Z,88.38
2023-05-18T05:09:36.999Z,88.48
2023-05-18T05:10:36.999Z,88.17
2023-05-18T05:11:36.996Z,88.69
2023-05-18T05:12:36.990Z,88.28
2023-05-18T05:13:36.970Z,88.13
2023-05-18T05:14:36.951Z,88.02
2023-05-18T05:15:36.961Z,88.13
2023-05-18T05:16:36.951Z,88.02
2023-05-18T05:17:37.006Z,88.13
2023-05-18T05:18:36.941Z,87.76
2023-05-18T05:19:36.914Z,87.82
2023-05-18T05:20:36.914Z,88.23
2023-05-18T05:21:36.897Z,87.92
2023-05-18T05:22:36.969Z,87.92
2023-05-18T05:23:36.850Z,87.78
2023-05-18T05:24:36.839Z,88.02
2023-05-18T05:25:36.847Z,88.09
2023-05-18T05:26:36.827Z,87.88
2023-05-18T05:27:36.808Z,87.99
2023-05-18T05:28:36.785Z,87.99
2023-05-18T05:29:36.783Z,88.09
2023-05-18T05:30:36.799Z,88.20
2023-05-18T05:31:36.814Z,88.54
2023-05-18T05:32:36.962Z,88.40
2023-05-18T05:33:36.751Z,87.99
2023-05-18T05:34:36.788Z,88.51
2023-05-18T05:35:37.044Z,88.67
2023-05-18T05:36:36.749Z,88.01
2023-05-18T05:37:36.732Z,88.63
2023-05-18T05:38:36.717Z,88.59
2023-05-18T05:39:36.714Z,87.76
2023-05-18T05:40:36.672Z,87.72
2023-05-18T05:41:36.691Z,87.72
2023-05-18T05:42:36.704Z,87.57
2023-05-18T05:43:36.669Z,87.72
2023-05-18T05:44:36.673Z,88.40
2023-05-18T05:45:36.656Z,87.02
2023-05-18T05:46:36.742Z,87.06
2023-05-18T05:47:36.667Z,87.02
2023-05-18T05:48:36.610Z,86.91
2023-05-18T05:49:36.636Z,86.98
2023-05-18T05:50:36.586Z,86.77
2023-05-18T05:51:36.560Z,87.25
2023-05-18T05:52:36.592Z,87.56
2023-05-18T05:53:36.572Z,86.90
2023-05-18T05:54:36.545Z,86.65
2023-05-18T05:55:36.528Z,86.65
2023-05-18T05:56:36.517Z,86.41
2023-05-18T05:57:36.514Z,85.33
2023-05-18T05:58:36.506Z,84.41
2023-05-18T05:59:36.503Z,84.20
2023-05-18T06:00:36.479Z,83.85
2023-05-18T06:01:36.473Z,83.95
2023-05-18T06:02:36.729Z,84.47
2023-05-18T06:03:36.522Z,84.43
2023-05-18T06:04:36.580Z,84.80
2023-05-18T06:05:36.426Z,84.08
2023-05-18T06:06:36.421Z,83.73
2023-05-18T06:07:36.412Z,83.18
2023-05-18T06:08:36.400Z,82.63
2023-05-18T06:09:36.385Z,81.56
2023-05-18T06:10:36.371Z,80.74
2023-05-18T06:11:36.363Z,80.33
2023-05-18T06:12:36.365Z,78.44
2023-05-18T06:13:36.360Z,78.40
2023-05-18T06:14:36.335Z,77.68
2023-05-18T06:15:36.322Z,77.37
2023-05-18T06:16:36.360Z,77.44
2023-05-18T06:17:36.326Z,78.02
2023-05-18T06:18:36.390Z,76.93
2023-05-18T06:19:36.279Z,78.09
2023-05-18T06:20:36.287Z,78.47
2023-05-18T06:21:36.270Z,79.66
2023-05-18T06:22:36.263Z,77.51
2023-05-18T06:23:36.242Z,76.24
2023-05-18T06:24:36.242Z,77.30
2023-05-18T06:25:36.232Z,77.37
2023-05-18T06:26:36.217Z,77.64
2023-05-18T06:27:36.209Z,76.27
2023-05-18T06:28:36.183Z,74.57
2023-05-18T06:29:36.183Z,75.76
2023-05-18T06:30:36.183Z,72.78
2023-05-18T06:31:36.180Z,73.71
2023-05-18T06:32:36.158Z,74.02
2023-05-18T06:33:37.174Z,76.17
2023-05-18T06:34:36.127Z,74.49
2023-05-18T06:35:36.147Z,73.81
2023-05-18T06:36:36.124Z,74.49
2023-05-18T06:37:36.100Z,72.14
2023-05-18T06:38:36.134Z,69.95
2023-05-18T06:39:36.072Z,69.75
2023-05-18T06:40:36.094Z,72.28
2023-05-18T06:41:36.064Z,70.26
2023-05-18T06:42:36.044Z,69.92
2023-05-18T06:43:36.042Z,70.53
2023-05-18T06:44:36.044Z,70.61
2023-05-18T06:45:37.310Z,68.66
2023-05-18T06:46:37.093Z,69.04
2023-05-18T06:47:36.111Z,68.25
2023-05-18T06:48:35.993Z,68.42
2023-05-18T06:49:35.985Z,69.34
2023-05-18T06:50:35.979Z,68.60
2023-05-18T06:51:35.956Z,68.08
2023-05-18T06:52:35.953Z,68.19
2023-05-18T06:53:35.933Z,68.49
2023-05-18T06:54:36.603Z,68.16
2023-05-18T06:55:36.749Z,65.67
2023-05-18T06:56:35.900Z,63.93
2023-05-18T06:57:35.887Z,64.24
2023-05-18T06:58:35.960Z,65.54
2023-05-18T06:59:36.331Z,66.46
2023-05-18T07:00:36.444Z,64.93
2023-05-18T07:01:35.917Z,64.22
2023-05-18T07:02:35.918Z,67.10
2023-05-18T07:03:35.892Z,64.55
2023-05-18T07:04:35.817Z,65.88
2023-05-18T07:05:39.209Z,64.52
2023-05-18T07:06:36.781Z,65.95
2023-05-18T07:07:35.792Z,63.81
2023-05-18T07:08:35.823Z,63.49
2023-05-18T07:09:35.802Z,64.11
2023-05-18T07:10:35.761Z,64.04
2023-05-18T07:11:35.742Z,64.31
2023-05-18T07:12:35.721Z,63.49
2023-05-18T07:13:35.728Z,64.22
2023-05-18T07:14:35.703Z,63.49
2023-05-18T07:15:35.785Z,63.87
2023-05-18T07:16:35.820Z,64.28
2023-05-18T07:17:35.706Z,64.39
2023-05-18T07:18:35.740Z,63.87
2023-05-18T07:19:35.644Z,63.57
2023-05-18T07:20:35.651Z,63.23
2023-05-18T07:21:35.627Z,62.52
2023-05-18T07:22:35.623Z,63.82
2023-05-18T07:23:35.805Z,61.78
2023-05-18T07:25:09.780Z,61.47
2023-05-18T07:25:35.609Z,62.73
2023-05-18T07:26:35.601Z,64.66
2023-05-18T07:27:35.592Z,63.34
2023-05-18T07:28:35.585Z,62.82
2023-05-18T07:29:35.555Z,61.68
2023-05-18T07:30:35.537Z,61.78
2023-05-18T07:31:35.562Z,61.68
2023-05-18T07:32:35.597Z,61.50
2023-05-18T07:33:35.537Z,62.21
2023-05-18T07:34:35.557Z,62.08
2023-05-18T07:35:35.536Z,62.49
2023-05-18T07:36:35.497Z,62.36
2023-05-18T07:37:35.519Z,62.16
2023-05-18T07:38:35.488Z,61.61
2023-05-18T07:39:35.489Z,61.24
2023-05-18T07:40:35.461Z,60.25
2023-05-18T07:41:35.458Z,61.19
2023-05-18T07:42:35.450Z,63.10
2023-05-18T07:43:35.426Z,63.41
2023-05-18T07:44:35.418Z,63.41
2023-05-18T07:45:35.430Z,63.79
2023-05-18T07:46:35.440Z,62.74
2023-05-18T07:47:35.450Z,60.70
2023-05-18T07:48:35.389Z,62.16
2023-05-18T07:49:35.373Z,62.77
2023-05-18T07:50:35.373Z,61.21
2023-05-18T07:51:35.374Z,61.41
2023-05-18T07:52:35.393Z,60.50
2023-05-18T07:53:35.335Z,61.41
2023-05-18T07:54:35.323Z,61.61
2023-05-18T07:55:35.316Z,60.63
2023-05-18T07:56:35.313Z,61.95
2023-05-18T07:57:35.307Z,60.60
2023-05-18T07:58:35.325Z,59.48
2023-05-18T07:59:35.293Z,60.39
2023-05-18T08:00:35.270Z,59.89
2023-05-18T08:01:35.370Z,59.25
2023-05-18T08:02:35.296Z,60.03
2023-05-18T08:03:35.288Z,59.60
2023-05-18T08:04:35.225Z,59.53
2023-05-18T08:05:35.209Z,60.37
2023-05-18T08:06:35.214Z,60.27
2023-05-18T08:07:35.197Z,59.89
2023-05-18T08:08:35.197Z,60.27
2023-05-18T08:09:35.173Z,60.47
2023-05-18T08:10:35.230Z,60.70
2023-05-18T08:11:35.184Z,61.52
2023-05-18T08:12:35.145Z,62.40
2023-05-18T08:13:35.125Z,59.68
2023-05-18T08:14:35.115Z,62.30
2023-05-18T08:15:35.121Z,61.66
2023-05-18T08:16:35.179Z,59.93
2023-05-18T08:17:36.117Z,61.05
2023-05-18T08:18:35.089Z,59.57
2023-05-18T08:19:36.055Z,58.42
2023-05-18T08:20:35.077Z,58.02
2023-05-18T08:21:35.041Z,58.73
2023-05-18T08:22:35.044Z,57.48
2023-05-18T08:23:35.025Z,58.22
2023-05-18T08:24:35.029Z,57.99
2023-05-18T08:25:35.026Z,59.69
2023-05-18T08:26:35.005Z,56.85
2023-05-18T08:27:35.007Z,58.50
2023-05-18T08:28:35.006Z,60.13
2023-05-18T08:29:34.981Z,59.54
2023-05-18T08:30:34.960Z,59.08
2023-05-18T08:31:35.031Z,58.88
2023-05-18T08:32:34.956Z,59.18
2023-05-18T08:33:34.923Z,57.18
2023-05-18T08:34:34.968Z,58.53
2023-05-18T08:35:34.932Z,57.95
2023-05-18T08:36:34.880Z,59.16
2023-05-18T08:37:34.876Z,58.56
2023-05-18T08:38:34.866Z,59.60
2023-05-18T08:39:34.894Z,60.00
2023-05-18T08:40:34.852Z,59.27
2023-05-18T08:41:34.823Z,59.84
2023-05-18T08:42:48.662Z,59.57
2023-05-18T08:43:36.816Z,60.59
2023-05-18T08:44:34.814Z,63.33
2023-05-18T08:45:34.795Z,59.21
2023-05-18T08:46:34.789Z,58.95
2023-05-18T08:47:34.843Z,56.18
2023-05-18T08:48:34.852Z,55.78
2023-05-18T08:49:34.763Z,58.29
2023-05-18T08:50:34.751Z,57.24
2023-05-18T08:51:34.745Z,55.85
2023-05-18T08:52:34.730Z,55.11
2023-05-18T08:53:34.738Z,56.20
2023-05-18T08:54:34.705Z,54.83
2023-05-18T08:55:34.678Z,53.70
2023-05-18T08:56:34.722Z,52.94
2023-05-18T08:57:34.679Z,51.03
2023-05-18T08:58:34.660Z,50.78
2023-05-18T08:59:35.678Z,51.50
2023-05-18T09:00:35.106Z,53.32
2023-05-18T09:01:34.686Z,51.40
2023-05-18T09:02:34.677Z,49.91
2023-05-18T09:03:34.608Z,55.07
2023-05-18T09:04:34.616Z,54.61
2023-05-18T09:05:35.061Z,52.56
2023-05-18T09:06:34.581Z,50.15
2023-05-18T09:07:34.594Z,51.96
2023-05-18T09:08:34.556Z,50.73
2023-05-18T09:09:34.546Z,49.92
2023-05-18T09:10:34.544Z,49.99
2023-05-18T09:11:34.567Z,51.79
2023-05-18T09:12:34.520Z,49.67
2023-05-18T09:13:34.512Z,51.68
2023-05-18T09:14:34.491Z,49.24
2023-05-18T09:15:34.474Z,49.67
2023-05-18T09:16:34.625Z,48.66
2023-05-18T09:17:34.460Z,47.55
2023-05-18T09:18:34.546Z,50.80
2023-05-18T09:19:34.444Z,50.27
2023-05-18T09:20:34.428Z,49.55
2023-05-18T09:21:34.430Z,49.93
2023-05-18T09:22:34.405Z,49.82
2023-05-18T09:23:34.408Z,47.13
2023-05-18T09:24:34.402Z,49.39
2023-05-18T09:25:34.386Z,50.75
2023-05-18T09:26:34.379Z,51.38
2023-05-18T09:27:34.371Z,50.09
2023-05-18T09:28:34.335Z,49.87
2023-05-18T09:29:34.353Z,50.59
2023-05-18T09:30:34.351Z,53.38
2023-05-18T09:31:34.387Z,50.73
2023-05-18T09:32:34.324Z,51.33
2023-05-18T09:33:34.387Z,51.18
2023-05-18T09:34:34.294Z,48.76
2023-05-18T09:35:34.581Z,49.93
2023-05-18T09:36:34.267Z,49.62
2023-05-18T09:37:34.262Z,49.50
2023-05-18T09:38:34.248Z,45.07
2023-05-18T09:39:34.247Z,45.90
2023-05-18T09:40:34.235Z,46.70
2023-05-18T09:41:34.223Z,44.29
2023-05-18T09:42:34.213Z,44.92
2023-05-18T09:43:34.202Z,45.06
2023-05-18T09:44:34.198Z,49.41
2023-05-18T09:45:34.174Z,47.67
2023-05-18T09:46:34.234Z,45.84
2023-05-18T09:47:34.166Z,45.52
2023-05-18T09:48:34.151Z,46.55
2023-05-18T09:49:34.161Z,47.30
2023-05-18T09:50:34.142Z,49.33
2023-05-18T09:51:34.130Z,47.77
2023-05-18T09:52:34.112Z,48.90
2023-05-18T09:53:34.116Z,50.14
2023-05-18T09:54:34.097Z,51.65
2023-05-18T09:55:35.094Z,50.14
2023-05-18T09:56:34.064Z,47.89
2023-05-18T09:57:34.058Z,46.61
2023-05-18T09:58:34.070Z,47.40
2023-05-18T09:59:34.057Z,46.92
2023-05-18T10:00:34.070Z,49.51
2023-05-18T10:01:34.093Z,50.44
2023-05-18T10:02:34.066Z,49.96
2023-05-18T10:03:34.019Z,46.60
2023-05-18T10:04:34.025Z,44.34
2023-05-18T10:05:35.732Z,45.12
2023-05-18T10:06:34.971Z,48.96
2023-05-18T10:07:33.966Z,47.40
2023-05-18T10:08:33.952Z,45.28
2023-05-18T10:09:33.939Z,47.40
2023-05-18T10:10:33.967Z,46.31
2023-05-18T10:11:33.930Z,46.05
2023-05-18T10:12:33.933Z,49.18
2023-05-18T10:13:33.896Z,50.59
2023-05-18T10:14:33.896Z,47.74
2023-05-18T10:15:33.884Z,47.06
2023-05-18T10:16:33.898Z,48.75
2023-05-18T10:17:33.961Z,49.16
2023-05-18T10:18:33.965Z,48.85
2023-05-18T10:19:33.848Z,47.52
2023-05-18T10:20:33.835Z,48.25
2023-05-18T10:21:33.825Z,48.02
2023-05-18T10:22:33.829Z,49.48
2023-05-18T10:23:33.805Z,45.97
2023-05-18T10:24:33.787Z,47.89
2023-05-18T10:25:33.783Z,47.54
2023-05-18T10:26:33.790Z,47.02
2023-05-18T10:27:33.761Z,45.97
2023-05-18T10:28:33.750Z,45.52
2023-05-18T10:29:33.739Z,44.37
2023-05-18T10:30:33.947Z,45.15
2023-05-18T10:31:33.778Z,42.80
2023-05-18T10:32:33.745Z,40.91
2023-05-18T10:33:33.747Z,42.03
2023-05-18T10:34:33.839Z,44.17
2023-05-18T10:35:33.675Z,46.03
2023-05-18T10:36:33.675Z,41.23
2023-05-18T10:37:33.653Z,42.24
2023-05-18T10:38:33.650Z,42.24
2023-05-18T10:39:33.640Z,42.46
2023-05-18T10:40:33.676Z,44.77
2023-05-18T10:41:33.631Z,43.56
2023-05-18T10:42:33.602Z,42.47
2023-05-18T10:43:34.595Z,44.41
2023-05-18T10:44:33.589Z,45.32
2023-05-18T10:45:33.589Z,45.70
2023-05-18T10:46:33.745Z,43.65
2023-05-18T10:47:33.810Z,45.16
2023-05-18T10:48:33.572Z,46.85
2023-05-18T10:49:33.548Z,44.69
2023-05-18T10:50:33.558Z,46.80
2023-05-18T10:51:33.520Z,45.95
2023-05-18T10:52:33.501Z,44.45
2023-05-18T10:53:33.498Z,43.79
2023-05-18T10:54:33.492Z,43.08
2023-05-18T10:55:33.490Z,43.26
2023-05-18T10:56:33.494Z,42.18
2023-05-18T10:57:33.454Z,43.79
2023-05-18T10:58:33.445Z,44.51
2023-05-18T10:59:33.453Z,43.93
2023-05-18T11:00:33.645Z,44.83
2023-05-18T11:01:33.425Z,42.74
2023-05-18T11:02:33.479Z,44.31
2023-05-18T11:03:33.430Z,44.51
2023-05-18T11:04:33.435Z,43.91
2023-05-18T11:05:33.398Z,48.21
2023-05-18T11:06:33.481Z,45.17
2023-05-18T11:07:33.350Z,43.95
2023-05-18T11:08:33.344Z,43.42
2023-05-18T11:09:33.343Z,45.13
2023-05-18T11:10:33.321Z,43.52
2023-05-18T11:11:33.308Z,41.23
2023-05-18T11:12:33.343Z,42.61
2023-05-18T11:13:33.285Z,43.24
2023-05-18T11:14:34.295Z,46.57
2023-05-18T11:15:33.276Z,44.92
2023-05-18T11:16:33.301Z,47.43
2023-05-18T11:17:33.343Z,44.89
2023-05-18T11:18:33.246Z,45.01
2023-05-18T11:19:33.242Z,45.14
2023-05-18T11:20:33.395Z,46.98
2023-05-18T11:21:33.212Z,44.83
2023-05-18T11:22:33.192Z,44.23
2023-05-18T11:23:33.209Z,44.04
2023-05-18T11:24:33.216Z,46.84
2023-05-18T11:25:33.177Z,43.50
2023-05-18T11:26:33.162Z,45.29
2023-05-18T11:27:33.150Z,43.20
2023-05-18T11:28:33.149Z,42.72
2023-05-18T11:29:33.126Z,45.21
2023-05-18T11:30:33.337Z,43.90
2023-05-18T11:31:33.149Z,43.00
2023-05-18T11:32:33.200Z,45.18
2023-05-18T11:33:33.168Z,42.07
2023-05-18T11:34:33.085Z,40.65
2023-05-18T11:35:33.067Z,40.28
2023-05-18T11:36:33.047Z,44.31
2023-05-18T11:37:33.108Z,43.48
2023-05-18T11:38:33.077Z,42.96
2023-05-18T11:39:33.261Z,42.05
2023-05-18T11:40:33.121Z,42.74
2023-05-18T11:41:33.025Z,42.18
2023-05-18T11:42:33.015Z,43.08
2023-05-18T11:43:32.984Z,43.30
2023-05-18T11:44:32.982Z,43.42
2023-05-18T11:45:32.967Z,43.04
2023-05-18T11:46:32.958Z,44.47
2023-05-18T11:47:32.974Z,44.01
2023-05-18T11:48:33.004Z,43.73
2023-05-18T11:49:32.923Z,43.32
2023-05-18T11:50:33.337Z,43.52
2023-05-18T11:51:32.920Z,45.44
2023-05-18T11:52:32.911Z,44.71
2023-05-18T11:53:32.887Z,43.80
2023-05-18T11:54:32.997Z,44.43
2023-05-18T11:55:32.874Z,44.75
2023-05-18T11:56:32.886Z,45.48
2023-05-18T11:57:32.888Z,45.98
2023-05-18T11:58:32.838Z,46.29
2023-05-18T11:59:32.827Z,47.80
2023-05-18T12:00:32.923Z,45.40
2023-05-18T12:01:32.822Z,45.90
2023-05-18T12:02:32.845Z,46.84
2023-05-18T12:03:32.882Z,47.44
2023-05-18T12:04:32.789Z,46.86
2023-05-18T12:05:32.768Z,47.47
2023-05-18T12:06:32.766Z,47.56
2023-05-18T12:07:32.798Z,47.77
2023-05-18T12:08:32.746Z,46.88
2023-05-18T12:09:32.726Z,49.51
2023-05-18T12:10:33.009Z,47.64
2023-05-18T12:11:32.742Z,47.60
2023-05-18T12:12:32.702Z,45.56
2023-05-18T12:13:32.682Z,44.93
2023-05-18T12:14:32.682Z,46.22
2023-05-18T12:15:32.663Z,47.69
2023-05-18T12:16:33.732Z,44.75
2023-05-18T12:17:32.712Z,45.07
2023-05-18T12:18:32.628Z,46.08
2023-05-18T12:19:32.683Z,44.95
2023-05-18T12:20:32.825Z,43.18
2023-05-18T12:21:32.609Z,44.97
2023-05-18T12:22:32.595Z,44.59
2023-05-18T12:23:32.588Z,44.87
2023-05-18T12:24:32.579Z,45.84
2023-05-18T12:25:32.698Z,47.78
2023-05-18T12:26:32.561Z,48.16
2023-05-18T12:27:32.614Z,46.33
2023-05-18T12:28:32.533Z,44.51
2023-05-18T12:29:32.558Z,44.09
2023-05-18T12:30:32.526Z,45.29
2023-05-18T12:31:32.611Z,44.87
2023-05-18T12:32:32.516Z,43.66
2023-05-18T12:33:32.486Z,44.29
2023-05-18T12:34:32.489Z,45.32
2023-05-18T12:35:32.962Z,44.33
2023-05-18T12:36:32.456Z,44.02
2023-05-18T12:37:41.606Z,44.02
2023-05-18T12:38:34.456Z,46.26
2023-05-18T12:39:32.433Z,46.37
2023-05-18T12:40:32.423Z,49.47
2023-05-18T12:41:32.424Z,48.26
2023-05-18T12:42:32.465Z,47.13
2023-05-18T12:43:32.399Z,44.81
2023-05-18T12:44:32.390Z,44.41
2023-05-18T12:45:32.731Z,45.21
2023-05-18T12:46:32.382Z,43.71
2023-05-18T12:47:32.404Z,43.79
2023-05-18T12:48:32.346Z,44.41
2023-05-18T12:49:32.326Z,46.30
2023-05-18T12:50:32.369Z,44.29
2023-05-18T12:51:32.315Z,43.48
2023-05-18T12:52:32.295Z,44.07